createdAt,value
2018-05-08T00:00:22.749Z,0
2018-05-08T00:10:27.105Z,0
2018-05-08T00:20:15.901Z,0
2018-05-08T00:31:11.002Z,0
2018-05-08T00:40:26.191Z,0
2018-05-08T00:50:15.961Z,0
2018-05-08T01:00:15.922Z,0
2018-05-08T01:10:21.642Z,0
2018-05-08T01:20:15.958Z,0
2018-05-08T01:30:24.561Z,0
2018-05-08T01:40:19.298Z,0
2018-05-08T01:50:15.990Z,0
2018-05-08T02:00:22.394Z,0
2018-05-08T02:10:31.633Z,0
2018-05-08T02:20:29.297Z,0
2018-05-08T02:30:16.064Z,0
2018-05-08T02:40:18.122Z,0
2018-05-08T02:50:19.735Z,0
2018-05-08T03:00:16.041Z,0
2018-05-08T03:10:16.198Z,0
2018-05-08T03:20:24.862Z,0
2018-05-08T03:30:16.101Z,0
2018-05-08T03:40:17.237Z,0
2018-05-08T03:50:16.086Z,5
2018-05-08T04:00:21.907Z,15
2018-05-08T04:10:16.087Z,20
2018-05-08T04:20:16.089Z,30
2018-05-08T04:30:18.297Z,35
2018-05-08T04:40:17.145Z,45
2018-05-08T04:50:16.130Z,55
2018-05-08T05:00:16.154Z,55
2018-05-08T05:10:16.160Z,60
2018-05-08T05:20:16.321Z,65
2018-05-08T05:30:22.397Z,70
2018-05-08T05:40:16.262Z,75
2018-05-08T05:50:16.203Z,80
2018-05-08T06:00:16.269Z,80
2018-05-08T06:10:16.470Z,85
2018-05-08T06:20:21.027Z,85
2018-05-08T06:30:16.225Z,105
2018-05-08T06:40:16.237Z,150
2018-05-08T06:50:16.365Z,250
2018-05-08T07:00:16.271Z,300
2018-05-08T07:10:16.776Z,320
2018-05-08T07:20:16.465Z,330
2018-05-08T07:30:16.395Z,335
2018-05-08T07:40:18.075Z,345
2018-05-08T07:50:16.366Z,350
2018-05-08T08:00:16.344Z,350
2018-05-08T08:10:16.491Z,345
2018-05-08T08:20:16.271Z,340
2018-05-08T08:30:16.617Z,315
2018-05-08T08:40:16.681Z,290
2018-05-08T08:50:16.343Z,145
2018-05-08T09:00:16.483Z,100
2018-05-08T09:10:16.484Z,100
2018-05-08T09:20:16.303Z,100
2018-05-08T09:30:16.369Z,105
2018-05-08T09:40:16.435Z,105
2018-05-08T09:50:16.301Z,105
2018-05-08T10:00:16.317Z,105
2018-05-08T10:10:16.362Z,105
2018-05-08T10:20:16.261Z,105
2018-05-08T10:30:17.532Z,105
2018-05-08T10:40:16.296Z,105
2018-05-08T10:50:16.352Z,105
2018-05-08T11:00:16.269Z,105
2018-05-08T11:10:16.336Z,110
2018-05-08T11:20:16.289Z,105
2018-05-08T11:30:16.292Z,105
2018-05-08T11:40:16.389Z,105
2018-05-08T11:50:17.076Z,105
2018-05-08T12:00:17.248Z,105
2018-05-08T12:10:16.348Z,105
2018-05-08T12:20:16.343Z,105
2018-05-08T12:30:16.386Z,105
2018-05-08T12:40:16.351Z,105
2018-05-08T12:50:16.337Z,105
2018-05-08T13:00:16.434Z,105
2018-05-08T13:10:16.426Z,105
2018-05-08T13:20:16.399Z,105
2018-05-08T13:30:16.340Z,105
2018-05-08T13:40:16.473Z,105
2018-05-08T13:50:16.339Z,105
2018-05-08T14:00:16.379Z,105
2018-05-08T14:10:16.367Z,105
2018-05-08T14:20:16.398Z,100
2018-05-08T14:30:16.441Z,100
2018-05-08T14:40:16.538Z,100
2018-05-08T14:50:16.602Z,100
2018-05-08T15:00:16.490Z,100
2018-05-08T15:10:16.536Z,100
2018-05-08T15:20:16.457Z,95
2018-05-08T15:30:16.710Z,95
2018-05-08T15:40:16.389Z,95
2018-05-08T15:50:16.326Z,95
2018-05-08T16:00:16.413Z,95
2018-05-08T16:10:17.267Z,90
2018-05-08T16:20:16.390Z,85
2018-05-08T16:30:16.470Z,80
2018-05-08T16:40:16.396Z,80
2018-05-08T16:50:16.404Z,75
2018-05-08T17:00:16.482Z,70
2018-05-08T17:10:16.532Z,65
2018-05-08T17:20:16.573Z,65
2018-05-08T17:30:16.589Z,60
2018-05-08T17:40:17.388Z,55
2018-05-08T17:50:16.349Z,50
2018-05-08T18:00:16.579Z,45
2018-05-08T18:10:16.425Z,40
2018-05-08T18:20:16.493Z,30
2018-05-08T18:30:16.457Z,25
2018-05-08T18:40:16.539Z,15
2018-05-08T18:50:16.478Z,10
2018-05-08T19:00:16.565Z,5
2018-05-08T19:10:16.455Z,0
2018-05-08T19:20:16.465Z,0
2018-05-08T19:30:16.483Z,0
2018-05-08T19:40:17.189Z,0
2018-05-08T19:50:16.435Z,0
2018-05-08T20:00:16.557Z,0
2018-05-08T20:10:16.497Z,0
2018-05-08T20:20:16.496Z,0
2018-05-08T20:30:16.426Z,0
2018-05-08T20:40:17.269Z,0
2018-05-08T20:50:16.600Z,0
2018-05-08T21:00:16.484Z,0
2018-05-08T21:10:16.761Z,0
2018-05-08T21:20:16.477Z,0
2018-05-08T21:30:17.177Z,0
2018-05-08T21:40:16.878Z,0
2018-05-08T21:50:17.327Z,0
2018-05-08T22:00:16.905Z,0
2018-05-08T22:10:16.968Z,0
2018-05-08T22:20:17.582Z,0
2018-05-08T22:30:16.798Z,0
2018-05-08T22:40:16.459Z,0
2018-05-08T22:50:16.531Z,0
2018-05-08T23:00:17.493Z,0
2018-05-08T23:10:16.542Z,0
2018-05-08T23:20:16.589Z,0
2018-05-08T23:30:16.493Z,0
2018-05-08T23:40:16.516Z,0
2018-05-08T23:50:16.420Z,0
